createdAt,value
2023-05-18T00:01:23.406Z,7.30
2023-05-18T00:03:55.178Z,7.40
2023-05-18T00:06:22.718Z,7.40
2023-05-18T00:08:49.800Z,7.40
2023-05-18T00:11:17.324Z,7.40
2023-05-18T00:13:44.410Z,7.30
2023-05-18T00:16:13.787Z,7.40
2023-05-18T00:18:41.067Z,7.40
2023-05-18T00:21:09.252Z,7.30
2023-05-18T00:23:39.695Z,7.30
2023-05-18T00:26:06.731Z,7.30
2023-05-18T00:28:33.804Z,7.20
2023-05-18T00:31:00.985Z,7.20
2023-05-18T00:33:28.228Z,7.20
2023-05-18T00:35:57.412Z,7.20
2023-05-18T00:38:24.584Z,7.10
2023-05-18T00:40:51.764Z,7.10
2023-05-18T00:43:20.098Z,7.10
2023-05-18T00:45:47.079Z,7.10
2023-05-18T00:48:18.924Z,7.00
2023-05-18T00:50:46.404Z,7.00
2023-05-18T00:53:13.402Z,7.00
2023-05-18T00:55:40.602Z,7.00
2023-05-18T00:58:07.671Z,7.00
2023-05-18T01:00:37.812Z,6.90
2023-05-18T01:03:05.412Z,6.90
2023-05-18T01:05:32.676Z,6.80
2023-05-18T01:08:00.134Z,6.70
2023-05-18T01:10:27.232Z,6.70
2023-05-18T01:13:02.932Z,6.70
2023-05-18T01:15:38.847Z,6.60
2023-05-18T01:18:22.432Z,6.70
2023-05-18T01:21:08.418Z,6.60
2023-05-18T01:24:25.915Z,6.50
2023-05-18T01:26:58.924Z,6.40
2023-05-18T01:29:29.572Z,6.40
2023-05-18T01:31:57.875Z,6.40
2023-05-18T01:34:25.086Z,6.40
2023-05-18T01:36:52.124Z,6.40
2023-05-18T01:39:19.669Z,6.40
2023-05-18T01:41:55.294Z,6.30
2023-05-18T01:44:34.291Z,6.30
2023-05-18T01:47:13.963Z,6.30
2023-05-18T01:49:59.415Z,6.30
2023-05-18T01:52:44.221Z,6.20
2023-05-18T01:55:14.443Z,6.20
2023-05-18T01:57:44.615Z,6.10
2023-05-18T02:00:12.899Z,6.00
2023-05-18T02:02:40.038Z,6.00
2023-05-18T02:05:07.776Z,6.00
2023-05-18T02:07:34.850Z,5.90
2023-05-18T02:10:02.032Z,5.90
2023-05-18T02:12:29.101Z,5.90
2023-05-18T02:14:58.390Z,5.90
2023-05-18T02:17:26.537Z,5.90
2023-05-18T02:19:53.621Z,5.90
2023-05-18T02:22:20.902Z,6.00
2023-05-18T02:24:47.999Z,6.00
2023-05-18T02:27:15.504Z,5.90
2023-05-18T02:29:42.478Z,5.90
2023-05-18T02:32:09.756Z,5.90
2023-05-18T02:34:38.445Z,5.90
2023-05-18T02:37:05.623Z,5.90
2023-05-18T02:39:34.054Z,5.90
2023-05-18T02:42:01.146Z,5.80
2023-05-18T02:44:28.284Z,5.90
2023-05-18T02:46:55.218Z,5.90
2023-05-18T02:49:22.167Z,5.80
2023-05-18T02:51:49.240Z,5.90
2023-05-18T02:54:16.203Z,5.90
2023-05-18T02:56:43.190Z,5.80
2023-05-18T02:59:10.344Z,5.80
2023-05-18T03:01:37.834Z,5.90
2023-05-18T03:04:04.893Z,5.90
2023-05-18T03:06:32.547Z,5.90
2023-05-18T03:08:59.585Z,5.90
2023-05-18T03:11:26.594Z,5.90
2023-05-18T03:13:53.635Z,5.90
2023-05-18T03:16:20.720Z,5.90
2023-05-18T03:18:47.747Z,5.90
2023-05-18T03:21:14.869Z,6.00
2023-05-18T03:23:41.822Z,6.00
2023-05-18T03:26:11.892Z,6.00
2023-05-18T03:28:39.627Z,6.00
2023-05-18T03:31:06.877Z,6.00
2023-05-18T03:33:34.369Z,6.00
2023-05-18T03:36:04.824Z,6.00
2023-05-18T03:38:32.037Z,6.00
2023-05-18T03:40:59.143Z,6.10
2023-05-18T03:43:26.251Z,6.10
2023-05-18T03:45:53.789Z,6.10
2023-05-18T03:48:21.874Z,6.10
2023-05-18T03:50:49.519Z,6.20
2023-05-18T03:53:21.526Z,6.20
2023-05-18T03:55:52.373Z,6.20
2023-05-18T03:58:22.716Z,6.30
2023-05-18T04:00:51.164Z,6.30
2023-05-18T04:03:18.227Z,6.30
2023-05-18T04:05:46.113Z,6.30
2023-05-18T04:08:15.995Z,6.40
2023-05-18T04:10:43.585Z,6.40
2023-05-18T04:13:11.023Z,6.40
2023-05-18T04:15:38.281Z,6.40
2023-05-18T04:18:05.454Z,6.40
2023-05-18T04:20:32.724Z,6.50
2023-05-18T04:23:00.214Z,6.50
2023-05-18T04:25:28.429Z,6.50
2023-05-18T04:27:56.954Z,6.60
2023-05-18T04:30:26.753Z,6.60
2023-05-18T04:32:54.786Z,6.60
2023-05-18T04:35:21.910Z,6.60
2023-05-18T04:37:48.877Z,6.60
2023-05-18T04:40:17.577Z,6.70
2023-05-18T04:42:47.706Z,6.70
2023-05-18T04:45:17.350Z,6.80
2023-05-18T04:47:46.726Z,6.90
2023-05-18T04:50:18.197Z,7.00
2023-05-18T04:52:49.111Z,7.00
2023-05-18T04:55:27.874Z,7.10
2023-05-18T04:58:00.479Z,7.10
2023-05-18T05:00:29.484Z,7.20
2023-05-18T05:02:57.484Z,7.30
2023-05-18T05:05:26.157Z,7.30
2023-05-18T05:07:54.602Z,7.30
2023-05-18T05:10:22.163Z,7.30
2023-05-18T05:12:52.618Z,7.30
2023-05-18T05:15:20.233Z,7.30
2023-05-18T05:17:48.148Z,7.40
2023-05-18T05:20:15.575Z,7.40
2023-05-18T05:22:42.631Z,7.50
2023-05-18T05:25:09.873Z,7.50
2023-05-18T05:27:36.929Z,7.50
2023-05-18T05:30:05.021Z,7.40
2023-05-18T05:32:32.047Z,7.50
2023-05-18T05:34:59.007Z,7.50
2023-05-18T05:37:26.240Z,7.50
2023-05-18T05:39:53.362Z,7.60
2023-05-18T05:42:20.303Z,7.50
2023-05-18T05:44:47.314Z,7.60
2023-05-18T05:47:14.602Z,7.70
2023-05-18T05:49:41.608Z,7.80
2023-05-18T05:52:08.790Z,7.80
2023-05-18T05:54:35.967Z,7.90
2023-05-18T05:57:04.035Z,8.10
2023-05-18T05:59:31.365Z,8.20
2023-05-18T06:01:58.654Z,8.20
2023-05-18T06:04:25.755Z,8.30
2023-05-18T06:06:52.831Z,8.30
2023-05-18T06:09:20.181Z,8.40
2023-05-18T06:11:47.156Z,8.30
2023-05-18T06:14:14.285Z,8.50
2023-05-18T06:16:41.374Z,8.60
2023-05-18T06:19:08.729Z,8.70
2023-05-18T06:21:36.022Z,8.70
2023-05-18T06:24:05.160Z,8.80
2023-05-18T06:26:32.531Z,8.90
2023-05-18T06:28:59.580Z,8.90
2023-05-18T06:31:28.312Z,9.00
2023-05-18T06:33:57.122Z,9.10
2023-05-18T06:36:24.093Z,9.20
2023-05-18T06:38:51.129Z,9.30
2023-05-18T06:41:18.163Z,9.30
2023-05-18T06:43:45.174Z,9.80
2023-05-18T06:46:26.665Z,10.50
2023-05-18T06:48:54.341Z,11.10
2023-05-18T06:51:21.498Z,11.60
2023-05-18T06:53:48.691Z,11.60
2023-05-18T06:56:16.801Z,12.20
2023-05-18T06:58:43.939Z,12.50
2023-05-18T07:01:11.477Z,13.00
2023-05-18T07:03:38.722Z,13.40
2023-05-18T07:06:06.237Z,13.50
2023-05-18T07:08:33.577Z,12.90
2023-05-18T07:11:02.624Z,12.60
2023-05-18T07:13:30.433Z,12.80
2023-05-18T07:15:58.209Z,12.60
2023-05-18T07:18:25.379Z,12.00
2023-05-18T07:20:52.520Z,12.40
2023-05-18T07:23:19.551Z,12.20
2023-05-18T07:25:46.875Z,12.40
2023-05-18T07:28:13.990Z,13.30
2023-05-18T07:30:41.040Z,13.60
2023-05-18T07:33:08.206Z,13.10
2023-05-18T07:35:35.251Z,13.40
2023-05-18T07:38:02.381Z,14.00
2023-05-18T07:40:29.401Z,14.00
2023-05-18T07:42:56.661Z,14.60
2023-05-18T07:45:24.071Z,14.40
2023-05-18T07:47:51.244Z,13.90
2023-05-18T07:50:19.270Z,13.00
2023-05-18T07:52:46.651Z,12.90
2023-05-18T07:55:13.946Z,13.40
2023-05-18T07:57:40.965Z,13.60
2023-05-18T08:00:09.993Z,13.70
2023-05-18T08:02:37.976Z,13.70
2023-05-18T08:05:05.632Z,13.40
2023-05-18T08:07:33.591Z,14.10
2023-05-18T08:10:00.694Z,14.20
2023-05-18T08:12:29.055Z,14.30
2023-05-18T08:14:56.875Z,14.60
2023-05-18T08:17:23.952Z,15.10
2023-05-18T08:19:53.892Z,14.80
2023-05-18T08:22:21.297Z,14.50
2023-05-18T08:24:48.470Z,14.90
2023-05-18T08:27:15.654Z,14.80
2023-05-18T08:29:42.639Z,14.70
2023-05-18T08:32:09.711Z,14.60
2023-05-18T08:34:37.107Z,14.90
2023-05-18T08:37:04.640Z,15.20
2023-05-18T08:39:34.301Z,14.80
2023-05-18T08:42:04.403Z,14.50
2023-05-18T08:44:38.901Z,14.10
2023-05-18T08:47:11.097Z,15.10
2023-05-18T08:49:41.570Z,15.10
2023-05-18T08:52:09.778Z,15.20
2023-05-18T08:54:37.900Z,15.40
2023-05-18T08:57:10.177Z,15.00
2023-05-18T08:59:41.671Z,15.00
2023-05-18T09:02:09.068Z,14.60
2023-05-18T09:04:38.578Z,15.70
2023-05-18T09:07:06.979Z,15.70
2023-05-18T09:09:35.578Z,15.10
2023-05-18T09:12:05.604Z,15.50
2023-05-18T09:14:34.317Z,15.50
2023-05-18T09:17:01.387Z,15.70
2023-05-18T09:19:28.899Z,15.60
2023-05-18T09:21:55.928Z,15.40
2023-05-18T09:24:24.940Z,16.20
2023-05-18T09:26:52.416Z,16.40
2023-05-18T09:29:24.413Z,16.10
2023-05-18T09:31:52.300Z,16.60
2023-05-18T09:34:19.577Z,16.20
2023-05-18T09:36:58.003Z,16.70
2023-05-18T09:39:25.055Z,16.50
2023-05-18T09:41:58.296Z,17.10
2023-05-18T09:44:35.202Z,16.90
2023-05-18T09:47:02.811Z,17.10
2023-05-18T09:49:33.248Z,16.60
2023-05-18T09:52:00.520Z,17.00
2023-05-18T09:54:27.596Z,17.20
2023-05-18T09:57:09.029Z,17.10
2023-05-18T09:59:37.757Z,17.00
2023-05-18T10:02:06.198Z,16.40
2023-05-18T10:04:41.707Z,16.70
2023-05-18T10:07:13.115Z,15.30
2023-05-18T10:09:45.178Z,15.10
2023-05-18T10:12:14.458Z,16.40
2023-05-18T10:14:43.377Z,17.10
2023-05-18T10:17:16.284Z,17.80
2023-05-18T10:19:45.186Z,18.10
2023-05-18T10:22:15.986Z,17.40
2023-05-18T10:24:45.993Z,16.50
2023-05-18T10:27:16.816Z,16.70
2023-05-18T10:29:44.478Z,15.70
2023-05-18T10:32:13.306Z,16.60
2023-05-18T10:34:42.004Z,17.60
2023-05-18T10:37:12.063Z,17.20
2023-05-18T10:39:45.314Z,17.60
2023-05-18T10:42:14.659Z,17.40
2023-05-18T10:44:41.908Z,17.80
2023-05-18T10:47:11.724Z,16.80
2023-05-18T10:49:42.669Z,16.10
2023-05-18T10:52:11.823Z,17.40
2023-05-18T10:54:41.677Z,17.20
2023-05-18T10:57:13.451Z,18.20
2023-05-18T10:59:47.396Z,18.30
2023-05-18T11:02:18.406Z,17.50
2023-05-18T11:04:53.281Z,17.90
2023-05-18T11:07:21.800Z,17.90
2023-05-18T11:09:49.365Z,18.50
2023-05-18T11:12:22.776Z,18.70
2023-05-18T11:14:54.888Z,18.00
2023-05-18T11:17:26.916Z,17.70
2023-05-18T11:20:06.008Z,18.10
2023-05-18T11:22:57.997Z,17.80
2023-05-18T11:25:25.636Z,16.10
2023-05-18T11:27:54.032Z,16.70
2023-05-18T11:30:36.710Z,17.20
2023-05-18T11:33:16.066Z,17.30
2023-05-18T11:36:11.814Z,17.10
2023-05-18T11:38:55.183Z,18.30
2023-05-18T11:41:44.748Z,18.30
2023-05-18T11:44:21.572Z,18.60
2023-05-18T11:46:51.476Z,17.30
2023-05-18T11:49:22.071Z,17.30
2023-05-18T11:52:13.516Z,16.90
2023-05-18T11:54:47.372Z,17.20
2023-05-18T11:57:16.422Z,17.20
2023-05-18T11:59:45.303Z,17.20
2023-05-18T12:02:18.292Z,17.20
2023-05-18T12:04:51.161Z,17.20
2023-05-18T12:07:20.136Z,17.80
2023-05-18T12:09:48.335Z,17.60
2023-05-18T12:12:17.405Z,17.10
2023-05-18T12:14:45.792Z,17.70
2023-05-18T12:17:12.937Z,18.70
2023-05-18T12:19:49.479Z,18.40
2023-05-18T12:22:17.067Z,18.50
2023-05-18T12:24:47.104Z,18.70
2023-05-18T12:27:16.275Z,19.00
2023-05-18T12:29:43.924Z,19.30
2023-05-18T12:32:12.869Z,19.20
2023-05-18T12:34:40.082Z,18.30
2023-05-18T12:37:10.230Z,18.80
2023-05-18T12:39:37.672Z,19.20
2023-05-18T12:42:17.886Z,19.40
2023-05-18T12:44:45.624Z,19.30
2023-05-18T12:47:13.822Z,18.20
2023-05-18T12:49:42.620Z,18.60
2023-05-18T12:52:10.935Z,18.70
2023-05-18T12:54:49.833Z,19.50
2023-05-18T12:57:16.922Z,20.00
2023-05-18T12:59:53.183Z,19.70
2023-05-18T13:02:36.587Z,19.60
2023-05-18T13:05:11.375Z,19.50
2023-05-18T13:07:43.606Z,19.80
2023-05-18T13:10:11.949Z,19.50
2023-05-18T13:12:49.949Z,19.80
2023-05-18T13:15:17.993Z,19.20
2023-05-18T13:18:05.878Z,18.20
2023-05-18T13:20:41.907Z,19.10
2023-05-18T13:23:10.523Z,19.80
2023-05-18T13:25:38.272Z,20.20
2023-05-18T13:28:06.353Z,20.20
2023-05-18T13:30:33.824Z,18.70
2023-05-18T13:33:01.001Z,19.00
2023-05-18T13:35:28.581Z,19.10
2023-05-18T13:37:56.138Z,19.20
2023-05-18T13:40:25.833Z,19.70
2023-05-18T13:42:53.249Z,19.80
2023-05-18T13:45:21.897Z,19.20
2023-05-18T13:47:53.693Z,19.30
2023-05-18T13:50:21.994Z,19.50
2023-05-18T13:52:49.064Z,19.20
2023-05-18T13:55:16.432Z,19.60
2023-05-18T13:57:44.567Z,19.40
2023-05-18T14:00:13.209Z,19.30
2023-05-18T14:02:47.369Z,19.20
2023-05-18T14:05:15.383Z,19.50
2023-05-18T14:07:43.042Z,19.30
2023-05-18T14:10:11.836Z,19.80
2023-05-18T14:12:39.605Z,19.20
2023-05-18T14:15:07.120Z,19.00
2023-05-18T14:17:34.971Z,19.20
2023-05-18T14:20:03.784Z,19.00
2023-05-18T14:22:30.780Z,19.00
2023-05-18T14:24:57.908Z,19.50
2023-05-18T14:27:24.848Z,19.70
2023-05-18T14:29:51.938Z,19.70
2023-05-18T14:32:21.120Z,19.10
2023-05-18T14:34:51.729Z,19.00
2023-05-18T14:37:19.316Z,19.40
2023-05-18T14:39:46.543Z,19.40
2023-05-18T14:42:13.616Z,19.10
2023-05-18T14:44:40.728Z,18.90
2023-05-18T14:47:07.771Z,18.80
2023-05-18T14:49:34.838Z,19.00
2023-05-18T14:52:01.757Z,18.80
2023-05-18T14:54:28.802Z,19.00
2023-05-18T14:56:55.757Z,18.40
2023-05-18T14:59:23.689Z,18.50
2023-05-18T15:01:50.925Z,18.40
2023-05-18T15:04:17.966Z,18.50
2023-05-18T15:06:45.112Z,18.70
2023-05-18T15:09:12.373Z,18.90
2023-05-18T15:11:39.315Z,19.10
2023-05-18T15:14:06.411Z,18.70
2023-05-18T15:16:33.479Z,18.90
2023-05-18T15:19:00.573Z,19.20
2023-05-18T15:21:27.602Z,19.10
2023-05-18T15:23:54.779Z,19.00
2023-05-18T15:26:22.362Z,18.80
2023-05-18T15:28:49.453Z,18.70
2023-05-18T15:31:17.282Z,18.70
2023-05-18T15:33:44.409Z,18.60
2023-05-18T15:36:11.617Z,18.80
2023-05-18T15:38:38.604Z,19.10
2023-05-18T15:41:05.671Z,18.90
2023-05-18T15:43:33.835Z,18.70
2023-05-18T15:46:01.109Z,17.80
2023-05-18T15:48:29.812Z,17.50
2023-05-18T15:50:56.884Z,17.90
2023-05-18T15:53:23.997Z,18.40
2023-05-18T15:55:57.512Z,18.50
2023-05-18T15:58:26.720Z,18.50
2023-05-18T16:00:53.847Z,18.10
2023-05-18T16:03:21.094Z,18.10
2023-05-18T16:05:48.224Z,17.60
2023-05-18T16:08:15.312Z,17.80
2023-05-18T16:10:42.285Z,17.90
2023-05-18T16:13:09.359Z,18.20
2023-05-18T16:15:36.478Z,18.40
2023-05-18T16:18:03.811Z,18.60
2023-05-18T16:20:31.168Z,18.50
2023-05-18T16:22:59.552Z,18.40
2023-05-18T16:25:26.718Z,18.40
2023-05-18T16:27:53.781Z,17.90
2023-05-18T16:30:20.956Z,17.90
2023-05-18T16:32:48.072Z,18.10
2023-05-18T16:35:15.178Z,18.00
2023-05-18T16:37:42.173Z,17.70
2023-05-18T16:40:09.550Z,17.70
2023-05-18T16:42:36.793Z,17.70
2023-05-18T16:45:04.082Z,17.60
2023-05-18T16:47:32.817Z,17.50
2023-05-18T16:50:00.575Z,17.30
2023-05-18T16:52:27.791Z,17.40
2023-05-18T16:54:54.801Z,17.20
2023-05-18T16:57:22.318Z,17.30
2023-05-18T16:59:49.592Z,17.20
2023-05-18T17:02:18.041Z,17.20
2023-05-18T17:04:46.065Z,17.10
2023-05-18T17:07:13.274Z,17.20
2023-05-18T17:09:41.806Z,17.20
2023-05-18T17:12:12.408Z,17.00
2023-05-18T17:14:39.875Z,16.80
2023-05-18T17:17:07.844Z,16.70
2023-05-18T17:19:35.370Z,16.70
2023-05-18T17:22:04.009Z,16.70
2023-05-18T17:24:31.364Z,16.60
2023-05-18T17:26:58.583Z,16.40
2023-05-18T17:29:25.751Z,16.30
2023-05-18T17:31:52.915Z,16.20
2023-05-18T17:34:19.977Z,16.20
2023-05-18T17:36:47.076Z,16.10
2023-05-18T17:39:16.544Z,16.10
2023-05-18T17:41:44.100Z,16.00
2023-05-18T17:44:14.413Z,16.00
2023-05-18T17:46:42.096Z,16.00
2023-05-18T17:49:11.389Z,15.90
2023-05-18T17:51:38.667Z,15.90
2023-05-18T17:54:08.703Z,15.90
2023-05-18T17:56:36.097Z,15.80
2023-05-18T17:59:04.183Z,15.80
2023-05-18T18:01:32.104Z,15.90
2023-05-18T18:03:59.751Z,15.80
2023-05-18T18:06:27.062Z,15.70
2023-05-18T18:08:57.725Z,15.60
2023-05-18T18:11:26.212Z,15.50
2023-05-18T18:13:54.028Z,15.50
2023-05-18T18:16:21.786Z,15.50
2023-05-18T18:18:49.295Z,15.50
2023-05-18T18:21:16.464Z,15.50
2023-05-18T18:23:43.583Z,15.40
2023-05-18T18:26:10.988Z,15.40
2023-05-18T18:28:38.133Z,15.40
2023-05-18T18:31:05.491Z,15.40
2023-05-18T18:33:35.499Z,15.30
2023-05-18T18:36:03.947Z,15.20
2023-05-18T18:38:31.365Z,15.30
2023-05-18T18:41:01.840Z,15.10
2023-05-18T18:43:29.148Z,15.10
2023-05-18T18:45:57.367Z,15.10
2023-05-18T18:48:25.237Z,15.10
2023-05-18T18:50:52.748Z,14.90
2023-05-18T18:53:19.869Z,14.80
2023-05-18T18:55:47.028Z,14.70
2023-05-18T18:58:14.128Z,14.50
2023-05-18T19:00:41.429Z,14.40
2023-05-18T19:03:10.084Z,14.30
2023-05-18T19:05:37.519Z,14.20
2023-05-18T19:08:04.732Z,14.20
2023-05-18T19:10:33.116Z,14.00
2023-05-18T19:13:05.006Z,14.00
2023-05-18T19:15:36.770Z,13.90
2023-05-18T19:18:04.117Z,13.80
2023-05-18T19:20:31.333Z,13.80
2023-05-18T19:22:58.535Z,13.60
2023-05-18T19:25:26.400Z,13.60
2023-05-18T19:27:54.303Z,13.50
2023-05-18T19:30:22.587Z,13.50
2023-05-18T19:32:53.419Z,13.50
2023-05-18T19:35:21.732Z,13.30
2023-05-18T19:37:48.745Z,13.20
2023-05-18T19:40:16.386Z,13.20
2023-05-18T19:42:43.567Z,13.10
2023-05-18T19:45:10.690Z,13.00
2023-05-18T19:47:37.742Z,13.00
2023-05-18T19:50:05.182Z,12.90
2023-05-18T19:52:33.621Z,12.90
2023-05-18T19:55:02.063Z,12.70
2023-05-18T19:57:29.481Z,12.70
2023-05-18T19:59:56.470Z,12.60
2023-05-18T20:02:23.431Z,12.50
2023-05-18T20:04:51.224Z,12.50
2023-05-18T20:07:18.236Z,12.50
2023-05-18T20:09:45.236Z,12.50
2023-05-18T20:12:12.373Z,12.40
2023-05-18T20:14:39.365Z,12.30
2023-05-18T20:17:06.883Z,12.30
2023-05-18T20:19:35.731Z,12.30
2023-05-18T20:22:03.268Z,12.20
2023-05-18T20:24:30.451Z,12.20
2023-05-18T20:26:57.365Z,12.20
2023-05-18T20:29:24.296Z,12.10
2023-05-18T20:31:51.535Z,12.10
2023-05-18T20:34:18.504Z,12.00
2023-05-18T20:36:45.413Z,12.00
2023-05-18T20:39:12.535Z,12.00
2023-05-18T20:41:40.413Z,11.90
2023-05-18T20:44:10.617Z,11.90
2023-05-18T20:46:38.172Z,11.90
2023-05-18T20:49:05.671Z,11.80
2023-05-18T20:51:32.719Z,11.70
2023-05-18T20:53:59.658Z,11.70
2023-05-18T20:56:27.472Z,11.60
2023-05-18T20:58:54.594Z,11.60
2023-05-18T21:01:21.756Z,11.60
2023-05-18T21:03:48.917Z,11.60
2023-05-18T21:06:16.038Z,11.50
2023-05-18T21:08:45.644Z,11.50
2023-05-18T21:11:12.625Z,11.50
2023-05-18T21:13:39.728Z,11.40
2023-05-18T21:16:08.612Z,11.40
2023-05-18T21:18:36.106Z,11.40
2023-05-18T21:21:04.874Z,11.40
2023-05-18T21:23:31.837Z,11.30
2023-05-18T21:25:58.872Z,11.30
2023-05-18T21:28:25.915Z,11.20
2023-05-18T21:30:54.243Z,11.20
2023-05-18T21:33:22.298Z,11.20
2023-05-18T21:35:49.536Z,11.10
2023-05-18T21:38:17.498Z,11.10
2023-05-18T21:40:44.558Z,11.10
2023-05-18T21:43:12.840Z,11.10
2023-05-18T21:45:40.536Z,11.10
2023-05-18T21:48:07.952Z,11.00
2023-05-18T21:50:35.653Z,10.90
2023-05-18T21:53:03.532Z,10.90
2023-05-18T21:55:34.039Z,10.90
2023-05-18T21:58:01.168Z,10.90
2023-05-18T22:00:28.715Z,10.80
2023-05-18T22:02:56.156Z,10.90
2023-05-18T22:05:23.248Z,10.80
2023-05-18T22:07:50.428Z,10.80
2023-05-18T22:10:18.316Z,10.80
2023-05-18T22:12:45.604Z,10.70
2023-05-18T22:15:12.816Z,10.70
2023-05-18T22:17:40.269Z,10.60
2023-05-18T22:20:11.712Z,10.60
2023-05-18T22:22:40.464Z,10.50
2023-05-18T22:25:07.997Z,10.50
2023-05-18T22:27:36.912Z,10.50
2023-05-18T22:30:06.259Z,10.40
2023-05-18T22:32:33.646Z,10.50
2023-05-18T22:35:02.021Z,10.40
2023-05-18T22:37:29.140Z,10.40
2023-05-18T22:39:56.213Z,10.40
2023-05-18T22:42:23.269Z,10.50
2023-05-18T22:44:50.222Z,10.40
2023-05-18T22:47:20.133Z,10.40
2023-05-18T22:49:47.855Z,10.40
2023-05-18T22:52:16.522Z,10.40
2023-05-18T22:54:43.776Z,10.40
2023-05-18T22:57:10.797Z,10.40
2023-05-18T22:59:37.905Z,10.30
2023-05-18T23:02:05.723Z,10.40
2023-05-18T23:04:34.069Z,10.30
2023-05-18T23:07:01.942Z,10.30
2023-05-18T23:09:30.697Z,10.30
2023-05-18T23:11:59.725Z,10.30
2023-05-18T23:14:32.535Z,10.20
2023-05-18T23:17:00.386Z,10.20
2023-05-18T23:19:27.578Z,10.20
2023-05-18T23:21:55.638Z,10.20
2023-05-18T23:24:22.816Z,10.10
2023-05-18T23:26:49.806Z,10.10
2023-05-18T23:29:16.909Z,10.10
2023-05-18T23:31:43.993Z,10.10
2023-05-18T23:34:11.316Z,10.10
2023-05-18T23:36:42.796Z,10.10
2023-05-18T23:39:10.665Z,10.00
2023-05-18T23:41:38.505Z,10.00
2023-05-18T23:44:06.622Z,10.00
2023-05-18T23:46:34.538Z,10.00
2023-05-18T23:49:01.988Z,10.00
2023-05-18T23:51:32.162Z,9.90
2023-05-18T23:54:00.456Z,9.90
2023-05-18T23:56:28.570Z,9.80
2023-05-18T23:58:56.068Z,9.70
